createdAt,value
2019-03-27T09:21:33.096Z,10.07
2019-03-27T09:22:33.083Z,10.70
2019-03-27T09:23:33.066Z,11.29
2019-03-27T09:24:33.055Z,11.89
2019-03-27T09:25:33.067Z,12.57
2019-03-27T09:26:33.034Z,12.87
2019-03-27T09:27:33.023Z,13.07
2019-03-27T09:28:33.011Z,13.11
2019-03-27T09:29:33.001Z,13.02
2019-03-27T09:30:33.012Z,12.99
2019-03-27T09:31:44.155Z,13.38
2019-03-27T09:32:33.971Z,13.87
2019-03-27T09:33:32.954Z,14.42
2019-03-27T09:34:32.944Z,14.80
2019-03-27T09:35:32.942Z,15.13
2019-03-27T09:36:32.923Z,15.41
2019-03-27T09:37:32.916Z,15.59
2019-03-27T09:38:32.898Z,15.59
2019-03-27T09:39:32.885Z,15.51
2019-03-27T09:40:32.881Z,15.66
2019-03-27T09:41:32.863Z,15.75
2019-03-27T09:42:32.852Z,15.81
2019-03-27T09:43:32.843Z,15.88
2019-03-27T09:44:32.835Z,16.06
2019-03-27T09:45:32.829Z,16.22
2019-03-27T09:46:32.809Z,16.40
2019-03-27T09:47:34.579Z,16.59
2019-03-27T09:48:32.783Z,16.78
2019-03-27T09:49:32.775Z,16.93
2019-03-27T09:50:32.761Z,16.95
2019-03-27T09:51:32.759Z,16.70
2019-03-27T09:52:32.737Z,16.34
2019-03-27T09:53:32.726Z,15.88
2019-03-27T09:54:32.715Z,15.48
2019-03-27T09:55:32.707Z,15.05
2019-03-27T09:56:32.702Z,14.80
2019-03-27T09:57:32.682Z,14.62
2019-03-27T09:58:32.671Z,14.52
2019-03-27T09:59:32.661Z,14.47
2019-03-27T10:00:32.647Z,14.38
2019-03-27T10:01:32.645Z,14.34
2019-03-27T10:02:32.630Z,14.46
2019-03-27T10:03:32.614Z,14.24
2019-03-27T10:04:32.601Z,14.02
2019-03-27T10:05:32.591Z,13.88
2019-03-27T10:06:32.588Z,13.65
2019-03-27T10:07:32.567Z,13.69
2019-03-27T10:08:32.558Z,13.58
2019-03-27T10:09:32.545Z,13.55
2019-03-27T10:10:32.534Z,13.56
2019-03-27T10:11:32.544Z,13.61
2019-03-27T10:12:32.510Z,13.74
2019-03-27T10:13:32.499Z,13.83
2019-03-27T10:14:32.489Z,13.87
2019-03-27T10:15:32.477Z,13.84
2019-03-27T10:16:32.479Z,13.65
2019-03-27T10:17:32.453Z,13.70
2019-03-27T10:18:32.442Z,13.62
2019-03-27T10:19:32.430Z,13.41
2019-03-27T10:20:32.419Z,13.37
2019-03-27T10:21:32.420Z,13.47
2019-03-27T10:22:32.398Z,13.54
2019-03-27T10:23:32.387Z,13.71
2019-03-27T10:24:32.374Z,13.87
2019-03-27T10:25:32.364Z,13.95
2019-03-27T10:26:32.362Z,14.12
2019-03-27T10:27:32.362Z,14.24
2019-03-27T10:28:32.331Z,14.31
2019-03-27T10:29:32.318Z,14.38
2019-03-27T10:30:32.309Z,14.46
2019-03-27T10:31:32.303Z,14.61
2019-03-27T10:32:32.284Z,14.69
2019-03-27T10:33:32.273Z,14.68
2019-03-27T10:34:32.261Z,14.90
2019-03-27T10:35:32.251Z,14.88
2019-03-27T10:36:32.245Z,14.90
2019-03-27T10:37:32.229Z,14.93
2019-03-27T10:38:32.223Z,14.78
2019-03-27T10:39:32.229Z,14.68
2019-03-27T10:40:32.202Z,14.62
2019-03-27T10:41:32.202Z,14.62
2019-03-27T10:42:32.170Z,14.54
2019-03-27T10:43:32.159Z,14.46
2019-03-27T10:44:32.147Z,14.39
2019-03-27T10:45:32.140Z,14.42
2019-03-27T10:46:32.134Z,14.43
2019-03-27T10:47:32.115Z,14.46
2019-03-27T10:48:32.102Z,14.35
2019-03-27T10:49:34.354Z,14.35
2019-03-27T10:50:32.085Z,14.24
2019-03-27T10:51:32.080Z,14.20
2019-03-27T10:52:32.056Z,14.14
2019-03-27T10:53:32.045Z,14.13
2019-03-27T10:54:32.034Z,14.07
2019-03-27T10:55:34.516Z,13.80
2019-03-27T10:56:32.026Z,13.81
2019-03-27T10:57:32.010Z,13.69
2019-03-27T10:58:31.990Z,13.65
2019-03-27T10:59:31.977Z,13.56
2019-03-27T11:00:31.969Z,13.51
2019-03-27T11:01:31.973Z,13.38
2019-03-27T11:02:31.943Z,13.18
2019-03-27T11:03:31.932Z,13.03
2019-03-27T11:04:31.920Z,13.06
2019-03-27T11:05:31.949Z,12.93
2019-03-27T11:06:31.911Z,12.79
2019-03-27T11:07:31.885Z,12.79
2019-03-27T11:08:31.877Z,12.63
2019-03-27T11:09:31.865Z,12.71
2019-03-27T11:10:31.854Z,12.71
2019-03-27T11:11:31.842Z,12.70
2019-03-27T11:12:31.838Z,12.71
2019-03-27T11:13:34.371Z,12.74
2019-03-27T11:14:37.649Z,12.70
2019-03-27T11:15:32.795Z,12.57
2019-03-27T11:16:31.785Z,12.63
2019-03-27T11:17:31.783Z,12.64
2019-03-27T11:18:31.764Z,12.51
2019-03-27T11:19:33.539Z,12.46
2019-03-27T11:20:31.852Z,12.33
2019-03-27T11:21:31.727Z,12.31
2019-03-27T11:22:31.733Z,12.19
2019-03-27T11:23:31.708Z,12.23
2019-03-27T11:24:31.696Z,12.21
2019-03-27T11:25:33.303Z,12.11
2019-03-27T11:26:31.671Z,12.23
2019-03-27T11:27:31.673Z,12.19
2019-03-27T11:28:31.686Z,12.26
2019-03-27T11:29:31.640Z,12.26
2019-03-27T11:30:31.629Z,12.29
2019-03-27T11:31:31.624Z,12.41
2019-03-27T11:32:31.622Z,12.38
2019-03-27T11:33:31.592Z,12.46
2019-03-27T11:34:31.581Z,12.48
2019-03-27T11:35:31.569Z,12.49
2019-03-27T11:36:31.558Z,12.56
2019-03-27T11:37:31.557Z,12.54
2019-03-27T11:38:31.535Z,12.69
2019-03-27T11:39:31.526Z,12.59
2019-03-27T11:40:31.517Z,12.63
2019-03-27T11:41:31.502Z,12.56
2019-03-27T11:42:31.499Z,12.51
2019-03-27T11:43:31.480Z,12.45
2019-03-27T11:44:31.469Z,12.31
2019-03-27T11:45:31.468Z,12.33
2019-03-27T11:46:32.350Z,12.38
2019-03-27T11:47:31.442Z,12.38
2019-03-27T11:48:31.424Z,12.37
2019-03-27T11:49:31.413Z,12.51
2019-03-27T11:50:44.138Z,12.56
2019-03-27T11:51:32.388Z,12.57
2019-03-27T11:52:31.389Z,12.63
2019-03-27T11:53:31.367Z,12.64
2019-03-27T11:54:31.356Z,12.79
2019-03-27T11:55:31.343Z,12.89
2019-03-27T11:56:31.334Z,12.84
2019-03-27T11:57:31.335Z,12.99
2019-03-27T11:58:31.313Z,12.93
2019-03-27T11:59:31.298Z,12.96
2019-03-27T12:00:31.286Z,13.07
2019-03-27T12:01:40.516Z,13.04
2019-03-27T12:02:32.274Z,13.00
2019-03-27T12:03:31.253Z,13.02
2019-03-27T12:04:31.242Z,13.06
2019-03-27T12:05:31.230Z,12.97
2019-03-27T12:06:31.221Z,13.03
2019-03-27T12:07:31.244Z,13.00
2019-03-27T12:08:31.199Z,12.96
2019-03-27T12:09:31.190Z,13.04
2019-03-27T12:10:31.177Z,12.96
2019-03-27T12:11:31.165Z,12.96
2019-03-27T12:12:31.151Z,13.00
2019-03-27T12:13:31.166Z,12.81
2019-03-27T12:14:31.135Z,12.82
2019-03-27T12:15:31.118Z,12.81
2019-03-27T12:16:31.107Z,12.81
2019-03-27T12:17:31.102Z,12.79
2019-03-27T12:18:32.223Z,12.84
2019-03-27T12:19:31.075Z,12.78
2019-03-27T12:20:31.063Z,12.77
2019-03-27T12:21:31.050Z,12.75
2019-03-27T12:22:31.041Z,12.74
2019-03-27T12:23:31.036Z,12.71
2019-03-27T12:24:31.019Z,12.67
2019-03-27T12:25:31.012Z,12.49
2019-03-27T12:26:30.993Z,12.48
2019-03-27T12:27:30.984Z,12.46
2019-03-27T12:28:30.996Z,12.46
2019-03-27T12:29:30.974Z,12.37
2019-03-27T12:30:30.948Z,12.46
2019-03-27T12:31:30.943Z,12.31
2019-03-27T12:32:30.927Z,12.42
2019-03-27T12:33:30.924Z,12.44
2019-03-27T12:34:30.906Z,12.46
2019-03-27T12:35:30.893Z,12.33
2019-03-27T12:36:30.880Z,12.26
2019-03-27T12:37:30.869Z,12.30
2019-03-27T12:38:30.865Z,12.31
2019-03-27T12:39:30.847Z,12.27
2019-03-27T12:40:30.836Z,12.26
2019-03-27T12:41:33.086Z,12.12
2019-03-27T12:42:30.816Z,12.16
2019-03-27T12:43:30.813Z,12.11
2019-03-27T12:44:30.789Z,12.06
2019-03-27T12:45:30.778Z,12.08
2019-03-27T12:46:30.781Z,12.06
2019-03-27T12:47:30.758Z,12.05
2019-03-27T12:48:30.751Z,12.09
2019-03-27T12:49:30.766Z,12.09
2019-03-27T12:50:30.721Z,12.13
2019-03-27T12:51:30.711Z,12.19
2019-03-27T12:52:30.713Z,12.19
2019-03-27T12:53:30.700Z,12.16
2019-03-27T12:54:30.677Z,12.06
2019-03-27T12:55:30.664Z,12.20
2019-03-27T12:56:30.655Z,12.15
2019-03-27T12:57:30.644Z,12.11
2019-03-27T12:58:30.646Z,12.21
2019-03-27T12:59:30.618Z,12.21
2019-03-27T13:00:30.609Z,12.27
2019-03-27T13:01:30.596Z,12.23
2019-03-27T13:02:30.586Z,12.26
2019-03-27T13:03:30.609Z,12.20
2019-03-27T13:04:30.573Z,12.24
2019-03-27T13:05:30.554Z,12.13
2019-03-27T13:06:30.540Z,12.21
2019-03-27T13:07:30.531Z,12.19
2019-03-27T13:08:30.518Z,12.19
2019-03-27T13:09:30.515Z,12.24
2019-03-27T13:10:30.517Z,12.31
2019-03-27T13:11:30.482Z,12.26
2019-03-27T13:12:30.476Z,12.29
2019-03-27T13:13:30.461Z,12.30
2019-03-27T13:14:30.462Z,12.29
2019-03-27T13:15:30.437Z,12.38
2019-03-27T13:16:30.425Z,12.38
2019-03-27T13:17:30.421Z,12.34
2019-03-27T13:18:30.404Z,12.31
2019-03-27T13:19:30.401Z,12.30
2019-03-27T13:20:30.384Z,12.38
2019-03-27T13:21:30.372Z,12.42
2019-03-27T13:22:30.363Z,12.39
2019-03-27T13:23:30.348Z,12.37
2019-03-27T13:24:30.345Z,12.39
2019-03-27T13:25:30.326Z,12.34
2019-03-27T13:26:30.315Z,12.42
2019-03-27T13:27:30.310Z,12.51
2019-03-27T13:28:30.294Z,12.62
2019-03-27T13:29:30.286Z,12.70
2019-03-27T13:30:30.270Z,12.77
2019-03-27T13:31:30.256Z,12.85
2019-03-27T13:32:30.245Z,12.75
2019-03-27T13:33:30.237Z,12.79
2019-03-27T13:34:30.230Z,12.75
2019-03-27T13:35:30.216Z,12.87
2019-03-27T13:36:30.206Z,12.77
2019-03-27T13:37:30.189Z,12.74
2019-03-27T13:38:30.177Z,12.74
2019-03-27T13:39:30.177Z,12.78
2019-03-27T13:40:30.154Z,12.69
2019-03-27T13:41:30.141Z,12.69
2019-03-27T13:42:30.131Z,12.71
2019-03-27T13:43:30.135Z,12.71
2019-03-27T13:44:36.921Z,12.63
2019-03-27T13:45:31.097Z,12.59
2019-03-27T13:46:30.087Z,12.57
2019-03-27T13:47:30.078Z,12.64
2019-03-27T13:48:30.063Z,12.64
2019-03-27T13:49:30.069Z,12.57
2019-03-27T13:50:30.040Z,12.67
2019-03-27T13:51:40.324Z,12.57
2019-03-27T13:52:31.017Z,12.54
2019-03-27T13:53:30.007Z,12.56
2019-03-27T13:54:30.007Z,12.64
2019-03-27T13:55:29.991Z,12.63
2019-03-27T13:56:29.975Z,12.62
2019-03-27T13:57:29.962Z,12.71
2019-03-27T13:58:29.950Z,12.79
2019-03-27T13:59:29.952Z,12.87
2019-03-27T14:00:29.927Z,12.92
2019-03-27T14:01:29.918Z,12.97
2019-03-27T14:02:29.905Z,12.99
2019-03-27T14:03:29.893Z,13.09
2019-03-27T14:04:29.883Z,13.12
2019-03-27T14:05:29.883Z,13.22
2019-03-27T14:06:29.859Z,13.22
2019-03-27T14:07:29.852Z,13.38
2019-03-27T14:08:29.837Z,13.24
2019-03-27T14:09:29.827Z,13.44
2019-03-27T14:10:29.832Z,13.32
2019-03-27T14:11:29.802Z,13.33
2019-03-27T14:12:29.794Z,13.27
2019-03-27T14:13:29.784Z,13.27
2019-03-27T14:14:29.769Z,13.24
2019-03-27T14:15:29.790Z,13.21
2019-03-27T14:16:29.746Z,13.12
2019-03-27T14:17:29.735Z,13.17
2019-03-27T14:18:29.774Z,13.21
2019-03-27T14:19:29.743Z,13.15
2019-03-27T14:20:29.711Z,13.18
2019-03-27T14:21:29.703Z,13.14
2019-03-27T14:22:29.678Z,13.11
2019-03-27T14:23:29.670Z,12.96
2019-03-27T14:24:29.655Z,12.96
2019-03-27T14:25:29.652Z,13.04
2019-03-27T14:26:29.634Z,12.95
2019-03-27T14:27:29.624Z,12.96
2019-03-27T14:28:29.611Z,12.93
2019-03-27T14:29:29.600Z,12.99
2019-03-27T14:30:29.602Z,12.97
2019-03-27T14:31:29.576Z,12.85
2019-03-27T14:32:29.565Z,12.87
2019-03-27T14:33:29.554Z,12.85
2019-03-27T14:34:29.547Z,12.95
2019-03-27T14:35:29.539Z,12.84
2019-03-27T14:36:29.521Z,12.70
2019-03-27T14:37:29.525Z,12.84
2019-03-27T14:38:29.499Z,12.85
2019-03-27T14:39:29.487Z,12.70
2019-03-27T14:40:29.487Z,12.84
2019-03-27T14:41:29.463Z,12.75
2019-03-27T14:42:29.453Z,12.87
2019-03-27T14:43:29.442Z,12.84
2019-03-27T14:44:29.438Z,12.74
2019-03-27T14:45:29.432Z,12.66
2019-03-27T14:46:29.406Z,12.70
2019-03-27T14:47:29.495Z,12.74
2019-03-27T14:48:29.385Z,12.71
2019-03-27T14:49:29.379Z,12.69
2019-03-27T14:50:29.373Z,12.71
2019-03-27T14:51:29.353Z,12.78
2019-03-27T14:52:29.343Z,12.67
2019-03-27T14:53:29.328Z,12.81
2019-03-27T14:54:29.321Z,12.67
2019-03-27T14:55:29.315Z,12.63
2019-03-27T14:56:29.296Z,12.85
2019-03-27T14:57:29.284Z,12.79
2019-03-27T14:58:29.270Z,12.66
2019-03-27T14:59:29.266Z,12.77
2019-03-27T15:00:29.260Z,12.71
2019-03-27T15:01:29.236Z,12.74
2019-03-27T15:02:29.281Z,12.63
2019-03-27T15:03:29.215Z,12.70
2019-03-27T15:04:29.204Z,12.79
2019-03-27T15:05:29.205Z,12.79
2019-03-27T15:06:29.182Z,12.82
2019-03-27T15:07:29.167Z,12.79
2019-03-27T15:08:29.166Z,12.66
2019-03-27T15:09:29.148Z,12.82
2019-03-27T15:10:29.144Z,12.85
2019-03-27T15:11:29.127Z,12.88
2019-03-27T15:12:29.111Z,12.87
2019-03-27T15:13:29.099Z,12.93
2019-03-27T15:14:29.089Z,12.97
2019-03-27T15:15:29.086Z,13.06
2019-03-27T15:16:29.072Z,12.97
2019-03-27T15:17:29.053Z,12.99
2019-03-27T15:18:29.043Z,13.12
2019-03-27T15:19:29.032Z,13.12
2019-03-27T15:20:29.032Z,13.12
2019-03-27T15:21:29.009Z,13.18
2019-03-27T15:22:29.104Z,13.15
2019-03-27T15:23:28.985Z,13.15
2019-03-27T15:24:28.975Z,13.20
2019-03-27T15:25:28.985Z,13.20
2019-03-27T15:26:28.953Z,13.18
2019-03-27T15:27:28.945Z,13.17
2019-03-27T15:28:28.931Z,13.20
2019-03-27T15:29:28.918Z,13.12
2019-03-27T15:30:28.906Z,13.15
2019-03-27T15:31:28.904Z,13.15
2019-03-27T15:32:28.888Z,13.02
2019-03-27T15:33:28.882Z,13.07
2019-03-27T15:34:28.870Z,13.06
2019-03-27T15:35:28.850Z,13.06
2019-03-27T15:36:28.848Z,12.96
2019-03-27T15:37:28.838Z,12.89
2019-03-27T15:38:28.819Z,12.89
2019-03-27T15:39:28.805Z,13.00
2019-03-27T15:40:28.854Z,12.89
2019-03-27T15:41:28.791Z,12.95
2019-03-27T15:42:28.770Z,12.99
2019-03-27T15:43:28.759Z,12.96
2019-03-27T15:44:28.749Z,13.02
2019-03-27T15:45:28.736Z,13.00
2019-03-27T15:46:28.735Z,12.99
2019-03-27T15:47:28.713Z,12.95
2019-03-27T15:48:28.704Z,13.00
2019-03-27T15:49:28.691Z,12.89
2019-03-27T15:50:28.687Z,13.03
2019-03-27T15:51:28.678Z,12.81
2019-03-27T15:52:36.332Z,12.82
2019-03-27T15:53:29.653Z,12.85
2019-03-27T15:54:28.634Z,12.84
2019-03-27T15:55:28.626Z,12.88
2019-03-27T15:56:28.623Z,12.85
2019-03-27T15:57:28.603Z,12.97
2019-03-27T15:58:28.591Z,12.82
2019-03-27T15:59:28.579Z,12.82
2019-03-27T16:00:28.568Z,12.81
2019-03-27T16:01:28.568Z,12.92
2019-03-27T16:02:28.551Z,12.77
2019-03-27T16:03:28.532Z,12.70
2019-03-27T16:04:28.524Z,12.67
2019-03-27T16:05:28.509Z,12.82
2019-03-27T16:06:28.531Z,12.88
2019-03-27T16:07:31.097Z,12.67
2019-03-27T16:08:28.479Z,12.67
2019-03-27T16:09:28.471Z,12.75
2019-03-27T16:10:28.461Z,12.79
2019-03-27T16:11:28.452Z,12.81
2019-03-27T16:12:28.432Z,12.85
2019-03-27T16:13:28.425Z,12.70
2019-03-27T16:14:28.410Z,12.81
2019-03-27T16:15:28.398Z,12.81
2019-03-27T16:16:28.396Z,12.74
2019-03-27T16:17:28.374Z,12.87
2019-03-27T16:18:28.364Z,12.64
2019-03-27T16:19:28.351Z,12.79
2019-03-27T16:20:28.345Z,12.71
2019-03-27T16:21:28.338Z,12.70
2019-03-27T16:22:28.320Z,12.70
2019-03-27T16:23:28.305Z,12.75
2019-03-27T16:24:28.295Z,12.75
2019-03-27T16:25:28.283Z,12.59
2019-03-27T16:26:28.281Z,12.63
2019-03-27T16:27:28.262Z,12.74
2019-03-27T16:28:28.261Z,12.69
2019-03-27T16:29:28.237Z,12.69
2019-03-27T16:30:28.292Z,12.75
2019-03-27T16:31:28.231Z,12.70
2019-03-27T16:32:28.204Z,12.67
2019-03-27T16:33:28.228Z,12.74
2019-03-27T16:34:28.180Z,12.70
2019-03-27T16:35:28.176Z,12.70
2019-03-27T16:36:28.220Z,12.66
2019-03-27T16:37:28.199Z,12.67
2019-03-27T16:38:28.156Z,12.57
2019-03-27T16:39:28.124Z,12.64
2019-03-27T16:40:28.124Z,12.63
2019-03-27T16:41:28.132Z,12.57
2019-03-27T16:42:28.208Z,12.56
2019-03-27T16:43:28.078Z,12.56
2019-03-27T16:44:28.068Z,12.64
2019-03-27T16:45:28.056Z,12.57
2019-03-27T16:46:28.062Z,12.60
2019-03-27T16:47:28.034Z,12.44
2019-03-27T16:48:28.023Z,12.60
2019-03-27T16:49:28.010Z,12.51
2019-03-27T16:50:27.999Z,12.48
2019-03-27T16:51:27.989Z,12.48
2019-03-27T16:52:27.992Z,12.39
2019-03-27T16:53:27.967Z,12.45
2019-03-27T16:54:27.952Z,12.41
2019-03-27T16:55:27.943Z,12.41
2019-03-27T16:56:27.931Z,12.34
2019-03-27T16:57:27.929Z,12.34
2019-03-27T16:58:27.907Z,12.38
2019-03-27T16:59:27.897Z,12.27
2019-03-27T17:00:27.887Z,12.23
2019-03-27T17:01:27.875Z,12.27
2019-03-27T17:02:27.896Z,12.27
2019-03-27T17:03:27.850Z,12.31
2019-03-27T17:04:27.840Z,12.30
2019-03-27T17:05:27.829Z,12.27
2019-03-27T17:06:27.817Z,12.33
2019-03-27T17:07:27.813Z,12.34
2019-03-27T17:08:27.795Z,12.33
2019-03-27T17:09:27.782Z,12.33
2019-03-27T17:10:27.773Z,12.30
2019-03-27T17:11:27.760Z,12.23
2019-03-27T17:12:27.757Z,12.26
2019-03-27T17:13:27.739Z,12.19
2019-03-27T17:14:27.729Z,12.30
2019-03-27T17:15:27.717Z,12.15
2019-03-27T17:16:27.703Z,12.15
2019-03-27T17:17:27.699Z,12.13
2019-03-27T17:18:28.238Z,12.12
2019-03-27T17:19:27.688Z,12.13
2019-03-27T17:20:27.657Z,12.19
2019-03-27T17:21:27.678Z,12.06
2019-03-27T17:22:27.667Z,12.01
2019-03-27T17:23:27.622Z,12.02
2019-03-27T17:24:27.616Z,11.94
2019-03-27T17:25:27.703Z,11.93
2019-03-27T17:26:27.589Z,11.90
2019-03-27T17:27:27.606Z,11.93
2019-03-27T17:28:27.593Z,11.87
2019-03-27T17:29:27.557Z,11.80
2019-03-27T17:30:27.551Z,11.83
2019-03-27T17:31:27.582Z,11.87
2019-03-27T17:32:27.552Z,11.87
2019-03-27T17:33:27.511Z,11.78
2019-03-27T17:34:27.509Z,11.87
2019-03-27T17:35:27.508Z,11.72
2019-03-27T17:36:27.477Z,11.80
2019-03-27T17:37:27.497Z,11.65
2019-03-27T17:38:27.454Z,11.68
2019-03-27T17:39:27.504Z,11.65
2019-03-27T17:40:27.441Z,11.68
2019-03-27T17:41:28.405Z,11.68
2019-03-27T17:42:27.424Z,11.70
2019-03-27T17:43:27.402Z,11.64
2019-03-27T17:44:27.394Z,11.59
2019-03-27T17:45:27.376Z,11.67
2019-03-27T17:46:27.364Z,11.61
2019-03-27T17:47:27.397Z,11.56
2019-03-27T17:48:27.341Z,11.53
2019-03-27T17:49:27.327Z,11.52
2019-03-27T17:50:27.316Z,11.46
2019-03-27T17:51:27.311Z,11.44
2019-03-27T17:52:27.294Z,11.44
2019-03-27T17:53:31.928Z,11.41
2019-03-27T17:54:27.272Z,11.47
2019-03-27T17:55:27.262Z,11.35
2019-03-27T17:56:27.248Z,11.31
2019-03-27T17:57:27.238Z,11.32
2019-03-27T17:58:27.234Z,11.19
2019-03-27T17:59:27.241Z,11.27
2019-03-27T18:00:27.203Z,11.19
2019-03-27T18:01:27.190Z,11.28
2019-03-27T18:02:27.179Z,11.11
2019-03-27T18:03:27.179Z,11.11
2019-03-27T18:04:27.159Z,11.09
2019-03-27T18:05:27.151Z,11.07
2019-03-27T18:06:27.133Z,11.17
2019-03-27T18:07:27.124Z,11.07
2019-03-27T18:08:27.121Z,11.01
2019-03-27T18:09:27.099Z,11.02
2019-03-27T18:10:27.091Z,11.01
2019-03-27T18:11:27.078Z,10.94
2019-03-27T18:12:27.065Z,10.94
2019-03-27T18:13:27.063Z,10.94
2019-03-27T18:14:27.042Z,10.89
2019-03-27T18:15:27.058Z,10.81
2019-03-27T18:16:27.020Z,10.86
2019-03-27T18:17:27.009Z,10.83
2019-03-27T18:18:27.008Z,10.78
2019-03-27T18:19:26.984Z,10.78
2019-03-27T18:20:26.979Z,10.80
2019-03-27T18:21:26.970Z,10.77
2019-03-27T18:22:26.953Z,10.76
2019-03-27T18:23:27.035Z,10.83
2019-03-27T18:24:26.933Z,10.76
2019-03-27T18:25:26.917Z,10.74
2019-03-27T18:26:26.912Z,10.71
2019-03-27T18:27:26.894Z,10.77
2019-03-27T18:28:26.883Z,10.66
2019-03-27T18:29:26.886Z,10.70
2019-03-27T18:30:26.860Z,10.66
2019-03-27T18:31:26.848Z,10.73
2019-03-27T18:32:26.841Z,10.73
2019-03-27T18:33:26.828Z,10.51
2019-03-27T18:34:26.824Z,10.52
2019-03-27T18:35:26.803Z,10.52
2019-03-27T18:36:26.791Z,10.53
2019-03-27T18:37:26.796Z,10.47
2019-03-27T18:38:26.777Z,10.47
2019-03-27T18:39:26.770Z,10.44
2019-03-27T18:40:26.746Z,10.53
2019-03-27T18:41:26.737Z,10.42
2019-03-27T18:42:26.726Z,10.39
2019-03-27T18:43:26.713Z,10.51
2019-03-27T18:44:26.718Z,10.39
2019-03-27T18:45:26.689Z,10.37
2019-03-27T18:46:26.678Z,10.46
2019-03-27T18:47:26.669Z,10.47
2019-03-27T18:48:26.655Z,10.43
2019-03-27T18:49:26.693Z,10.43
2019-03-27T18:50:26.634Z,10.28
2019-03-27T18:51:26.620Z,10.36
2019-03-27T18:52:26.611Z,10.32
2019-03-27T18:53:26.601Z,10.30
2019-03-27T18:54:26.596Z,10.25
2019-03-27T18:55:27.229Z,10.32
2019-03-27T18:56:26.566Z,10.26
2019-03-27T18:57:26.554Z,10.24
2019-03-27T18:58:26.547Z,10.19
2019-03-27T18:59:26.538Z,10.33
2019-03-27T19:00:26.604Z,10.18
2019-03-27T19:01:26.510Z,10.30
2019-03-27T19:02:26.498Z,10.25
2019-03-27T19:03:26.485Z,10.19
2019-03-27T19:04:26.482Z,10.21
2019-03-27T19:05:26.465Z,10.17
2019-03-27T19:06:26.453Z,10.19
2019-03-27T19:07:26.441Z,10.10
2019-03-27T19:08:26.438Z,10.18
2019-03-27T19:09:26.429Z,10.18
2019-03-27T19:10:26.406Z,10.15
2019-03-27T19:11:26.395Z,10.14
2019-03-27T19:12:27.195Z,10.15
2019-03-27T19:13:26.373Z,10.10
2019-03-27T19:14:26.372Z,10.14
2019-03-27T19:15:26.349Z,10.12
2019-03-27T19:16:26.338Z,10.09
2019-03-27T19:17:26.328Z,10.09
2019-03-27T19:18:26.315Z,10.04
2019-03-27T19:19:26.313Z,10.03
2019-03-27T19:20:26.292Z,10.03
2019-03-27T19:21:26.281Z,10.04
2019-03-27T19:22:26.275Z,10.01
2019-03-27T19:23:26.263Z,9.96
2019-03-27T19:24:26.263Z,9.91
2019-03-27T19:25:26.240Z,10.03
2019-03-27T19:26:26.226Z,10.03
2019-03-27T19:27:26.214Z,9.89
2019-03-27T19:28:26.205Z,10.00
2019-03-27T19:29:26.255Z,9.96
2019-03-27T19:30:26.180Z,9.94
2019-03-27T19:31:26.176Z,9.85
2019-03-27T19:32:26.159Z,9.88
2019-03-27T19:33:26.148Z,10.00
2019-03-27T19:34:26.137Z,9.88
2019-03-27T19:35:26.132Z,9.93
2019-03-27T19:36:26.111Z,9.85
2019-03-27T19:37:26.102Z,9.78
2019-03-27T19:38:26.089Z,9.81
2019-03-27T19:39:26.081Z,9.81
2019-03-27T19:40:26.076Z,9.73
2019-03-27T19:41:26.056Z,9.81
2019-03-27T19:42:26.044Z,9.67
2019-03-27T19:43:26.037Z,9.78
2019-03-27T19:44:26.022Z,9.68
2019-03-27T19:45:26.021Z,9.73
2019-03-27T19:46:26.037Z,9.66
2019-03-27T19:47:25.990Z,9.70
2019-03-27T19:48:25.977Z,9.58
2019-03-27T19:49:25.970Z,9.70
2019-03-27T19:50:25.967Z,9.71
2019-03-27T19:51:25.942Z,9.63
2019-03-27T19:52:25.937Z,9.63
2019-03-27T19:53:25.919Z,9.57
2019-03-27T19:54:27.322Z,9.53
2019-03-27T19:55:25.908Z,9.64
2019-03-27T19:56:25.886Z,9.68
2019-03-27T19:57:25.874Z,9.50
2019-03-27T19:58:25.864Z,9.64
2019-03-27T19:59:25.851Z,9.63
2019-03-27T20:00:25.849Z,9.58
2019-03-27T20:01:25.833Z,9.63
2019-03-27T20:02:25.819Z,9.57
2019-03-27T20:03:25.807Z,9.49
2019-03-27T20:04:25.794Z,9.52
2019-03-27T20:05:25.796Z,9.52
2019-03-27T20:06:25.777Z,9.56
2019-03-27T20:07:35.309Z,9.45
2019-03-27T20:08:26.748Z,9.50
2019-03-27T20:09:25.739Z,9.48
2019-03-27T20:10:25.728Z,9.52
2019-03-27T20:11:25.747Z,9.50
2019-03-27T20:12:25.706Z,9.52
2019-03-27T20:13:25.692Z,9.42
2019-03-27T20:14:25.769Z,9.42
2019-03-27T20:15:25.672Z,9.46
2019-03-27T20:16:25.668Z,9.45
2019-03-27T20:17:25.647Z,9.56
2019-03-27T20:18:25.642Z,9.45
2019-03-27T20:19:25.641Z,9.45
2019-03-27T20:20:25.614Z,9.38
2019-03-27T20:21:25.611Z,9.38
2019-03-27T20:22:25.593Z,9.35
2019-03-27T20:23:25.583Z,9.39
2019-03-27T20:24:25.570Z,9.40
2019-03-27T20:25:25.569Z,9.35
2019-03-27T20:26:25.573Z,9.34
2019-03-27T20:27:25.535Z,9.42
2019-03-27T20:28:25.567Z,9.40
2019-03-27T20:29:25.522Z,9.40
2019-03-27T20:30:26.986Z,9.49
2019-03-27T20:31:25.503Z,9.40
2019-03-27T20:32:25.492Z,9.40
2019-03-27T20:33:25.477Z,9.39
2019-03-27T20:34:25.468Z,9.34
2019-03-27T20:35:25.447Z,9.40
2019-03-27T20:36:25.571Z,9.32
2019-03-27T20:37:25.428Z,9.25
2019-03-27T20:38:25.431Z,9.39
2019-03-27T20:39:25.435Z,9.23
2019-03-27T20:40:27.710Z,9.31
2019-03-27T20:41:25.396Z,9.31
2019-03-27T20:42:25.365Z,9.28
2019-03-27T20:43:25.366Z,9.23
2019-03-27T20:44:25.352Z,9.21
2019-03-27T20:45:25.353Z,9.34
2019-03-27T20:46:29.176Z,9.31
2019-03-27T20:47:25.345Z,9.27
2019-03-27T20:48:25.304Z,9.23
2019-03-27T20:49:25.295Z,9.27
2019-03-27T20:50:27.003Z,9.24
2019-03-27T20:51:25.275Z,9.24
2019-03-27T20:52:25.250Z,9.20
2019-03-27T20:53:25.273Z,9.24
2019-03-27T20:54:25.254Z,9.16
2019-03-27T20:55:30.454Z,9.20
2019-03-27T20:56:26.220Z,9.23
2019-03-27T20:57:25.195Z,9.20
2019-03-27T20:58:25.183Z,9.27
2019-03-27T20:59:25.178Z,9.06
2019-03-27T21:00:25.161Z,9.06
2019-03-27T21:01:25.151Z,9.13
2019-03-27T21:02:25.150Z,9.18
2019-03-27T21:03:25.132Z,9.10
2019-03-27T21:04:25.119Z,9.09
2019-03-27T21:05:25.105Z,9.05
2019-03-27T21:06:25.092Z,8.97
2019-03-27T21:07:25.091Z,8.99
2019-03-27T21:08:25.073Z,8.97
2019-03-27T21:09:25.059Z,8.99
2019-03-27T21:10:25.049Z,8.94
2019-03-27T21:11:25.038Z,8.96
2019-03-27T21:12:25.042Z,8.88
2019-03-27T21:13:25.013Z,8.97
2019-03-27T21:14:25.005Z,8.94
2019-03-27T21:15:25.082Z,8.79
2019-03-27T21:16:24.979Z,8.78
2019-03-27T21:17:25.009Z,8.78
2019-03-27T21:18:24.959Z,8.72
2019-03-27T21:19:24.948Z,8.79
2019-03-27T21:20:24.941Z,8.75
2019-03-27T21:21:24.926Z,8.72
2019-03-27T21:22:24.927Z,8.65
2019-03-27T21:23:24.907Z,8.68
2019-03-27T21:24:24.893Z,8.63
2019-03-27T21:25:25.020Z,8.58
2019-03-27T21:26:24.867Z,8.57
2019-03-27T21:27:24.869Z,8.63
2019-03-27T21:28:24.845Z,8.55
2019-03-27T21:29:24.841Z,8.60
2019-03-27T21:30:24.822Z,8.55
2019-03-27T21:31:24.823Z,8.55
2019-03-27T21:32:24.815Z,8.60
2019-03-27T21:33:24.788Z,8.51
2019-03-27T21:34:24.780Z,8.45
2019-03-27T21:35:24.764Z,8.55
2019-03-27T21:36:24.754Z,8.50
2019-03-27T21:37:24.758Z,8.54
2019-03-27T21:38:24.735Z,8.54
2019-03-27T21:39:25.966Z,8.45
2019-03-27T21:40:24.713Z,8.62
2019-03-27T21:41:24.696Z,8.50
2019-03-27T21:42:24.686Z,8.44
2019-03-27T21:43:24.689Z,8.51
2019-03-27T21:44:24.666Z,8.45
2019-03-27T21:45:24.654Z,8.45
2019-03-27T21:46:24.641Z,8.45
2019-03-27T21:47:24.629Z,8.45
2019-03-27T21:48:24.632Z,8.45
2019-03-27T21:49:24.615Z,8.51
2019-03-27T21:50:24.597Z,8.54
2019-03-27T21:51:24.585Z,8.47
2019-03-27T21:52:24.573Z,8.42
2019-03-27T21:53:24.578Z,8.48
2019-03-27T21:54:24.553Z,8.47
2019-03-27T21:55:24.549Z,8.37
2019-03-27T21:56:24.527Z,8.42
2019-03-27T21:57:24.518Z,8.40
2019-03-27T21:58:24.524Z,8.39
2019-03-27T21:59:24.494Z,8.35
2019-03-27T22:00:24.493Z,8.36
2019-03-27T22:01:24.472Z,8.37
2019-03-27T22:02:24.463Z,8.37
2019-03-27T22:03:24.457Z,8.35
2019-03-27T22:04:24.443Z,8.35
2019-03-27T22:05:24.427Z,8.29
2019-03-27T22:06:24.416Z,8.35
2019-03-27T22:07:24.404Z,8.33
2019-03-27T22:08:24.405Z,8.30
2019-03-27T22:09:24.381Z,8.36
2019-03-27T22:10:24.379Z,8.33
2019-03-27T22:11:24.359Z,8.30
2019-03-27T22:12:24.349Z,8.36
2019-03-27T22:13:24.347Z,8.25
2019-03-27T22:14:24.325Z,8.39
2019-03-27T22:15:24.352Z,8.26
2019-03-27T22:16:24.303Z,8.26
2019-03-27T22:17:24.300Z,8.33
2019-03-27T22:18:24.295Z,8.32
2019-03-27T22:19:24.271Z,8.32